Time;durP1;ratioP1;P1;durP2;ratioP2;P2;SDS_P1;SDS_P2;PMS_P1;PMS_P2;Temp;Humidity;BMP_temperature;BMP_pressure;BME280_temperature;BME280_humidity;BME280_pressure;Samples;Min_cycle;Max_cycle;Signal;HPM_P1;HPM_P2
2023/12/27 00:02:31;;;;;;;;;;;6.80;99.90;;;;;;4906210;29;20051;-69
2023/12/27 00:05:03;;;;;;;4.15;1.75;;;6.80;99.90;;;;;;4926026;29;19930;-69
2023/12/27 00:07:35;;;;;;;3.83;1.58;;;6.80;99.90;;;;;;4905849;29;20044;-69
2023/12/27 00:10:07;;;;;;;4.43;1.92;;;6.80;99.90;;;;;;4918833;29;20453;-69
2023/12/27 00:12:39;;;;;;;6.32;1.58;;;6.80;99.90;;;;;;4910356;29;20051;-69
2023/12/27 00:15:11;;;;;;;6.75;2.50;;;6.80;99.90;;;;;;4919438;29;20060;-69
2023/12/27 00:17:43;;;;;;;5.47;2.03;;;6.80;99.90;;;;;;4911792;29;20048;-69
2023/12/27 00:20:15;;;;;;;3.67;1.70;;;6.80;99.90;;;;;;4907315;29;20048;-69
2023/12/27 00:22:47;;;;;;;4.03;1.65;;;6.80;99.90;;;;;;4919686;29;20043;-69
2023/12/27 00:25:14;;;;;;;4.60;2.03;;;6.80;99.90;;;;;;4914737;29;20132;-69
2023/12/27 00:27:46;;;;;;;7.20;2.67;;;6.80;99.90;;;;;;4906257;29;20037;-69
2023/12/27 00:30:18;;;;;;;4.82;2.60;;;6.80;99.90;;;;;;4905894;29;20050;-69
2023/12/27 00:32:50;;;;;;;4.93;2.08;;;6.80;99.90;;;;;;4926078;29;20044;-69
2023/12/27 00:35:22;;;;;;;5.78;2.65;;;6.80;99.90;;;;;;4910636;29;20048;-68
2023/12/27 00:37:54;;;;;;;5.88;3.47;;;6.80;99.90;;;;;;4913140;29;20052;-70
2023/12/27 00:40:26;;;;;;;4.35;2.72;;;6.80;99.90;;;;;;4922702;29;20056;-69
2023/12/27 00:42:58;;;;;;;8.13;2.78;;;6.80;99.90;;;;;;4912751;29;20052;-69
2023/12/27 00:45:25;;;;;;;4.22;2.38;;;6.80;99.90;;;;;;4913387;29;20469;-69
2023/12/27 00:47:56;;;;;;;8.48;3.03;;;6.80;99.90;;;;;;4914098;29;20416;-68
2023/12/27 00:50:28;;;;;;;5.30;2.17;;;6.80;99.90;;;;;;4912033;29;20051;-69
2023/12/27 00:53:00;;;;;;;6.38;2.45;;;6.80;99.90;;;;;;4920312;29;20127;-69
2023/12/27 00:55:32;;;;;;;5.18;2.30;;;6.80;99.90;;;;;;4909967;29;20052;-69
2023/12/27 00:58:04;;;;;;;5.30;2.33;;;6.80;99.90;;;;;;4908692;29;20062;-69
2023/12/27 01:00:32;;;;;;;5.00;2.72;;;6.80;99.90;;;;;;4909086;29;20048;-69
2023/12/27 01:03:04;;;;;;;3.30;1.98;;;6.80;99.90;;;;;;4912741;29;20547;-69
2023/12/27 01:05:36;;;;;;;8.40;2.45;;;6.80;99.90;;;;;;4902937;29;20048;-68
2023/12/27 01:08:08;;;;;;;6.15;2.72;;;6.70;99.90;;;;;;4896357;29;20040;-69
2023/12/27 01:10:40;;;;;;;3.17;2.38;;;6.70;99.90;;;;;;4915784;29;20044;-68
2023/12/27 01:13:07;;;;;;;6.55;2.20;;;6.60;99.90;;;;;;4900487;29;20535;-69
2023/12/27 01:15:34;;;;;;;5.20;2.38;;;6.60;99.90;;;;;;4899686;29;20073;-69
2023/12/27 01:18:06;;;;;;;3.75;2.85;;;6.60;99.90;;;;;;4899940;29;20131;-73
2023/12/27 01:20:38;;;;;;;3.47;2.30;;;6.60;99.90;;;;;;4915049;29;20513;-68
2023/12/27 01:23:10;;;;;;;5.05;2.58;;;6.60;99.90;;;;;;4911614;29;20084;-69
2023/12/27 01:25:42;;;;;;;5.00;2.40;;;6.60;99.90;;;;;;4905600;29;20048;-69
2023/12/27 01:28:14;;;;;;;5.93;2.55;;;6.60;99.90;;;;;;4922078;29;20075;-68
2023/12/27 01:30:46;;;;;;;5.65;2.40;;;6.60;99.90;;;;;;4895558;29;20046;-68
2023/12/27 01:33:13;;;;;;;2.85;1.85;;;6.70;99.90;;;;;;4910496;29;20074;-69
2023/12/27 01:35:40;;;;;;;6.32;2.75;;;6.70;99.90;;;;;;4928597;29;20079;-69
2023/12/27 01:38:12;;;;;;;7.00;2.63;;;6.70;99.90;;;;;;4911301;29;20056;-69
2023/12/27 01:40:51;;;;;;;5.65;2.85;;;6.70;99.90;;;;;;4929087;29;20048;-69
2023/12/27 01:43:23;;;;;;;8.25;2.65;;;6.70;99.90;;;;;;4914348;29;20047;-69
2023/12/27 01:45:55;;;;;;;5.18;2.58;;;6.70;99.90;;;;;;4899122;29;20480;-69
2023/12/27 01:48:27;;;;;;;4.28;1.83;;;6.70;99.90;;;;;;4907435;29;20036;-69
2023/12/27 01:51:01;;;;;;;3.90;2.08;;;6.60;99.90;;;;;;4891047;29;20044;-69
2023/12/27 01:53:33;;;;;;;4.53;2.13;;;6.70;99.90;;;;;;4923058;29;20130;-69
2023/12/27 01:56:01;;;;;;;9.30;2.85;;;6.60;99.90;;;;;;4923691;29;20079;-69
2023/12/27 01:58:34;;;;;;;4.35;2.38;;;6.60;99.90;;;;;;4910926;29;20617;-69
2023/12/27 02:01:06;;;;;;;5.17;2.17;;;6.60;99.90;;;;;;4911391;29;20054;-68
2023/12/27 02:03:40;;;;;;;5.10;2.33;;;6.60;99.90;;;;;;4882744;29;20292;-69
2023/12/27 02:06:12;;;;;;;5.40;2.42;;;6.60;99.90;;;;;;4913169;29;20044;-68
2023/12/27 02:08:45;;;;;;;4.40;1.83;;;6.60;99.90;;;;;;4914126;29;20048;-68
2023/12/27 02:11:17;;;;;;;2.43;1.33;;;6.60;99.90;;;;;;4914036;29;20076;-68
2023/12/27 02:13:44;;;;;;;6.88;2.33;;;6.50;99.90;;;;;;4925059;29;20335;-68
2023/12/27 02:16:11;;;;;;;4.78;2.13;;;6.40;99.90;;;;;;4911888;29;20059;-68
2023/12/27 02:18:43;;;;;;;3.63;2.40;;;6.40;99.90;;;;;;4922243;29;20136;-69
2023/12/27 02:21:17;;;;;;;5.63;2.42;;;6.40;99.90;;;;;;4911596;29;20502;-67
2023/12/27 02:23:52;;;;;;;6.00;2.93;;;6.30;99.90;;;;;;4913630;29;20535;-67
2023/12/27 02:26:25;;;;;;;5.35;2.47;;;6.30;99.90;;;;;;4910858;29;20892;-68
2023/12/27 02:28:58;;;;;;;;;;;6.30;99.90;;;;;;4915365;29;20036;-68
2023/12/27 02:31:25;;;;;;;5.50;2.47;;;6.30;99.90;;;;;;4913805;29;19927;-67
2023/12/27 02:33:58;;;;;;;5.95;2.17;;;6.30;99.90;;;;;;4928223;29;20044;-69
2023/12/27 02:36:30;;;;;;;9.07;3.13;;;6.30;99.90;;;;;;4914559;29;20052;-68
2023/12/27 02:39:03;;;;;;;6.38;2.40;;;6.30;99.90;;;;;;4913499;29;20044;-69
2023/12/27 02:41:30;;;;;;;3.85;2.08;;;6.30;99.90;;;;;;4914734;29;20166;-68
2023/12/27 02:44:02;;;;;;;5.13;2.78;;;6.30;99.90;;;;;;4913320;29;20055;-68
2023/12/27 02:46:34;;;;;;;6.43;1.90;;;6.30;99.90;;;;;;4914906;29;20048;-68
2023/12/27 02:49:06;;;;;;;4.93;1.95;;;6.40;99.90;;;;;;4899032;29;20138;-68
2023/12/27 02:51:38;;;;;;;5.22;2.72;;;6.40;99.90;;;;;;4916226;29;20049;-68
2023/12/27 02:54:05;;;;;;;5.18;2.58;;;6.40;99.90;;;;;;4913671;29;20478;-68
2023/12/27 02:56:36;;;;;;;4.55;2.60;;;6.40;99.90;;;;;;4897530;29;20505;-69
2023/12/27 02:59:09;;;;;;;3.38;1.83;;;6.40;99.90;;;;;;4913788;29;20052;-69
2023/12/27 03:01:35;;;;;;;5.97;2.30;;;6.40;99.90;;;;;;4913753;29;20048;-68
2023/12/27 03:04:07;;;;;;;6.00;2.10;;;6.40;99.90;;;;;;4913682;29;20050;-68
2023/12/27 03:06:39;;;;;;;5.38;2.45;;;6.40;99.90;;;;;;4898256;29;20520;-68
2023/12/27 03:09:11;;;;;;;3.70;2.20;;;6.40;99.90;;;;;;4906343;29;20045;-68
2023/12/27 03:11:38;;;;;;;5.28;2.88;;;6.40;99.90;;;;;;4913588;29;20070;-69
2023/12/27 03:14:11;;;;;;;6.90;2.05;;;6.40;99.90;;;;;;4913520;29;20063;-68
2023/12/27 03:16:43;;;;;;;5.85;2.20;;;6.30;99.90;;;;;;4924604;29;20040;-68
2023/12/27 03:19:15;;;;;;;4.78;2.30;;;6.30;99.90;;;;;;4909620;29;20095;-68
2023/12/27 03:21:48;;;;;;;5.90;2.60;;;6.30;99.90;;;;;;4927488;29;20067;-68
2023/12/27 03:24:20;;;;;;;5.18;1.92;;;6.30;99.90;;;;;;4915030;29;20060;-68
2023/12/27 03:26:52;;;;;;;4.90;2.17;;;6.20;99.90;;;;;;4913009;29;20599;-69
2023/12/27 03:29:24;;;;;;;4.30;1.85;;;6.30;99.90;;;;;;4914717;29;20048;-69
2023/12/27 03:31:56;;;;;;;5.57;2.40;;;6.30;99.90;;;;;;4898470;29;20052;-68
2023/12/27 03:34:28;;;;;;;7.93;2.28;;;6.30;99.90;;;;;;4893136;29;20080;-68
2023/12/27 03:37:00;;;;;;;5.35;2.00;;;6.30;99.90;;;;;;4890451;29;20056;-68
2023/12/27 03:39:32;;;;;;;5.85;2.05;;;6.30;99.90;;;;;;4905335;29;20060;-68
2023/12/27 03:42:01;;;;;;;6.82;2.38;;;6.20;99.90;;;;;;4914529;29;20048;-68
2023/12/27 03:44:33;;;;;;;4.43;2.05;;;6.20;99.90;;;;;;4913201;29;20592;-68
2023/12/27 03:47:06;;;;;;;4.82;1.92;;;6.20;99.90;;;;;;4900336;29;20072;-68
2023/12/27 03:49:33;;;;;;;4.47;2.38;;;6.10;99.90;;;;;;4917068;29;20044;-68
2023/12/27 03:52:05;;;;;;;3.22;1.98;;;6.10;99.90;;;;;;4917359;29;20115;-68
2023/12/27 03:54:38;;;;;;;4.20;2.60;;;6.00;99.90;;;;;;4930725;29;20476;-68
2023/12/27 03:57:10;;;;;;;4.68;2.03;;;6.00;99.90;;;;;;4912763;29;20544;-68
2023/12/27 03:59:37;;;;;;;9.93;2.83;;;6.00;99.90;;;;;;4918171;29;20046;-68
2023/12/27 04:02:09;;;;;;;4.95;2.30;;;5.90;99.90;;;;;;4926638;29;20044;-68
2023/12/27 04:04:41;;;;;;;5.63;2.70;;;5.90;99.90;;;;;;4917806;29;20071;-68
2023/12/27 04:07:08;;;;;;;3.00;2.00;;;5.90;99.90;;;;;;4916611;29;20036;-69
2023/12/27 04:09:40;;;;;;;5.65;1.90;;;5.90;99.90;;;;;;4918103;29;20040;-68
2023/12/27 04:12:12;;;;;;;5.32;2.50;;;5.90;99.90;;;;;;4916591;29;20130;-68
2023/12/27 04:14:44;;;;;;;3.92;2.03;;;5.80;99.90;;;;;;4930664;29;20058;-68
2023/12/27 04:17:16;;;;;;;4.13;2.00;;;5.70;99.90;;;;;;4914294;29;20044;-68
2023/12/27 04:19:49;;;;;;;6.00;2.40;;;5.70;99.90;;;;;;4931039;29;20442;-68
2023/12/27 04:22:21;;;;;;;3.38;2.08;;;5.70;99.90;;;;;;4929622;29;20051;-69
2023/12/27 04:24:52;;;;;;;3.90;2.15;;;5.70;99.90;;;;;;4922722;29;20048;-68
2023/12/27 04:27:24;;;;;;;4.00;2.00;;;5.70;99.90;;;;;;4920415;29;20044;-68
2023/12/27 04:29:56;;;;;;;9.60;2.50;;;5.70;99.90;;;;;;4907160;29;20136;-69
2023/12/27 04:32:28;;;;;;;5.60;2.10;;;5.70;99.90;;;;;;4924670;29;20422;-69
2023/12/27 04:35:00;;;;;;;3.97;2.45;;;5.70;99.90;;;;;;4906533;29;20044;-68
2023/12/27 04:37:32;;;;;;;5.30;2.70;;;5.70;99.90;;;;;;4907613;29;20102;-69
2023/12/27 04:40:05;;;;;;;3.72;2.10;;;5.70;99.90;;;;;;4917536;29;20116;-69
2023/12/27 04:42:32;;;;;;;6.72;2.33;;;5.70;99.90;;;;;;4900287;29;20143;-68
2023/12/27 04:45:04;;;;;;;6.85;2.55;;;5.70;99.90;;;;;;4916117;29;20135;-69
2023/12/27 04:47:36;;;;;;;5.70;2.90;;;5.70;99.90;;;;;;4915964;29;20072;-68
2023/12/27 04:50:08;;;;;;;8.38;2.53;;;5.70;99.90;;;;;;4905104;29;20044;-69
2023/12/27 04:52:40;;;;;;;6.00;3.58;;;5.70;99.90;;;;;;4915904;29;20055;-68
2023/12/27 04:55:07;;;;;;;4.03;2.10;;;5.70;99.90;;;;;;4923409;29;20047;-68
2023/12/27 04:57:39;;;;;;;3.90;2.35;;;5.70;99.90;;;;;;4892217;29;20458;-68
2023/12/27 05:00:12;;;;;;;4.10;2.63;;;5.70;99.90;;;;;;4900837;29;20048;-68
2023/12/27 05:02:43;;;;;;;5.93;2.70;;;5.60;99.90;;;;;;4915682;29;20730;-68
2023/12/27 05:05:15;;;;;;;5.28;2.35;;;5.60;99.90;;;;;;4900484;29;20143;-68
2023/12/27 05:07:47;;;;;;;7.25;2.58;;;5.60;99.90;;;;;;4915593;29;20059;-68
2023/12/27 05:10:19;;;;;;;5.10;2.50;;;5.50;99.90;;;;;;4924163;29;20052;-68
2023/12/27 05:12:53;;;;;;;6.97;3.33;;;5.50;99.90;;;;;;4930019;29;20112;-68
2023/12/27 05:15:20;;;;;;;7.00;2.22;;;5.40;99.90;;;;;;4916859;29;20044;-68
2023/12/27 05:17:47;;;;;;;4.20;2.30;;;5.30;99.90;;;;;;4916606;29;20044;-68
2023/12/27 05:20:19;;;;;;;6.72;2.95;;;5.20;99.90;;;;;;4917014;29;20052;-68
2023/12/27 05:22:50;;;;;;;6.05;2.60;;;5.10;99.90;;;;;;4909894;29;20048;-69
2023/12/27 05:25:17;;;;;;;5.30;3.35;;;5.00;99.90;;;;;;4924395;29;20058;-69
2023/12/27 05:27:49;;;;;;;4.95;2.67;;;5.00;99.90;;;;;;4915681;29;20044;-68
2023/12/27 05:30:21;;;;;;;3.47;2.00;;;4.90;99.90;;;;;;4916759;29;20050;-68
2023/12/27 05:32:48;;;;;;;3.90;2.60;;;4.80;99.90;;;;;;4902659;29;20523;-68
2023/12/27 05:35:19;;;;;;;3.10;2.08;;;4.80;99.90;;;;;;4923870;29;20107;-69
2023/12/27 05:37:46;;;;;;;5.82;2.47;;;4.70;99.90;;;;;;4916261;29;20048;-69
2023/12/27 05:40:18;;;;;;;3.40;2.30;;;4.60;99.90;;;;;;4916484;29;20512;-68
2023/12/27 05:42:45;;;;;;;7.68;2.80;;;4.50;99.90;;;;;;4918279;29;20130;-69
2023/12/27 05:45:17;;;;;;;4.47;2.40;;;4.60;99.90;;;;;;4915286;29;20409;-68
2023/12/27 05:47:49;;;;;;;4.47;2.58;;;4.50;99.90;;;;;;4908796;29;20055;-69
2023/12/27 05:50:21;;;;;;;4.70;2.75;;;4.40;99.90;;;;;;4900039;29;20045;-68
2023/12/27 05:52:54;;;;;;;3.88;2.33;;;4.30;99.90;;;;;;4909277;29;20067;-68
2023/12/27 05:55:26;;;;;;;6.07;3.22;;;4.20;99.90;;;;;;4909923;29;20058;-68
2023/12/27 05:57:58;;;;;;;3.35;2.05;;;4.20;99.90;;;;;;4916085;29;20052;-68
2023/12/27 06:00:30;;;;;;;5.00;2.22;;;4.10;99.90;;;;;;4915059;29;20052;-68
2023/12/27 06:03:02;;;;;;;7.30;2.90;;;4.10;99.90;;;;;;4915790;29;20127;-68
2023/12/27 06:05:36;;;;;;;4.15;2.22;;;4.10;99.90;;;;;;4910176;29;20416;-68
2023/12/27 06:08:09;;;;;;;5.70;2.63;;;4.00;99.90;;;;;;4915821;29;20127;-68
2023/12/27 06:10:41;;;;;;;6.53;2.47;;;4.00;99.90;;;;;;4915517;29;20055;-68
2023/12/27 06:13:13;;;;;;;6.90;2.45;;;4.00;99.90;;;;;;4919272;29;20063;-68
2023/12/27 06:15:45;;;;;;;4.32;2.42;;;3.90;99.90;;;;;;4921656;29;20056;-68
2023/12/27 06:18:17;;;;;;;5.20;2.53;;;4.00;99.90;;;;;;4915763;29;20531;-69
2023/12/27 06:20:49;;;;;;;7.18;2.90;;;3.90;99.90;;;;;;4915536;29;20049;-69
2023/12/27 06:23:21;;;;;;;4.50;2.90;;;3.90;99.90;;;;;;4915473;29;20055;-69
2023/12/27 06:25:48;;;;;;;4.20;2.80;;;3.90;99.90;;;;;;4915011;29;20060;-68
2023/12/27 06:28:20;;;;;;;5.22;2.80;;;3.90;99.90;;;;;;4914183;29;20047;-69
2023/12/27 06:30:52;;;;;;;4.90;3.15;;;3.90;99.90;;;;;;4915511;29;20545;-68
2023/12/27 06:33:24;;;;;;;4.38;2.08;;;3.90;99.90;;;;;;4915269;29;20079;-68
2023/12/27 06:35:56;;;;;;;5.13;2.65;;;3.80;99.90;;;;;;4915156;29;20044;-68
2023/12/27 06:38:28;;;;;;;5.20;2.70;;;3.80;99.90;;;;;;4915537;29;20417;-68
2023/12/27 06:41:00;;;;;;;4.13;2.47;;;3.70;99.90;;;;;;4904155;29;20067;-69
2023/12/27 06:43:27;;;;;;;3.72;2.40;;;3.50;99.90;;;;;;4905642;29;20040;-68
2023/12/27 06:45:54;;;;;;;8.00;2.50;;;3.50;99.90;;;;;;4908557;29;20090;-69
2023/12/27 06:48:26;;;;;;;4.35;2.38;;;3.40;99.90;;;;;;4915409;29;20421;-69
2023/12/27 06:50:58;;;;;;;4.70;2.63;;;3.40;99.90;;;;;;4914433;29;20036;-69
2023/12/27 06:53:30;;;;;;;3.00;2.55;;;3.30;99.90;;;;;;4885326;29;20056;-69
2023/12/27 06:56:01;;;;;;;4.32;2.60;;;3.30;99.90;;;;;;4915000;29;20048;-69
2023/12/27 06:58:34;;;;;;;4.47;2.83;;;3.40;99.90;;;;;;4909841;29;20047;-68
2023/12/27 07:01:06;;;;;;;3.58;2.55;;;3.40;99.90;;;;;;4910569;29;20532;-68
2023/12/27 07:03:38;;;;;;;4.55;2.30;;;3.30;99.90;;;;;;4914143;29;20072;-67
2023/12/27 07:06:10;;;;;;;4.80;3.05;;;3.30;99.90;;;;;;4913325;29;20067;-68
2023/12/27 07:08:43;;;;;;;4.03;2.92;;;3.20;99.90;;;;;;4910462;29;20045;-68
2023/12/27 07:11:19;;;;;;;6.45;3.50;;;3.20;99.90;;;;;;4914269;29;20535;-68
2023/12/27 07:13:47;;;;;;;4.53;3.38;;;3.20;99.90;;;;;;4913060;29;20050;-69
2023/12/27 07:16:18;;;;;;;5.43;3.47;;;3.10;99.90;;;;;;4912023;29;20048;-68
2023/12/27 07:18:50;;;;;;;5.82;3.15;;;3.20;99.90;;;;;;4906464;29;20044;-68
2023/12/27 07:21:17;;;;;;;6.65;3.70;;;3.20;99.90;;;;;;4913836;29;20044;-68
2023/12/27 07:23:49;;;;;;;7.13;3.40;;;3.20;99.90;;;;;;4915435;29;20469;-68
2023/12/27 07:26:22;;;;;;;4.68;3.75;;;3.20;99.90;;;;;;4914545;29;20050;-70
2023/12/27 07:28:49;;;;;;;5.18;3.13;;;3.20;99.90;;;;;;4911163;29;20091;-68
2023/12/27 07:31:21;;;;;;;5.22;2.67;;;3.30;99.90;;;;;;4911681;29;20039;-68
2023/12/27 07:33:52;;;;;;;3.97;2.67;;;3.30;99.90;;;;;;4911402;29;20050;-71
2023/12/27 07:36:24;;;;;;;5.40;2.83;;;3.30;99.90;;;;;;4914566;29;20070;-68
2023/12/27 07:38:56;;;;;;;5.60;3.60;;;3.40;99.90;;;;;;4913211;29;20511;-69
2023/12/27 07:41:28;;;;;;;5.72;3.58;;;3.40;99.90;;;;;;4894533;29;20086;-68
2023/12/27 07:43:59;;;;;;;5.80;3.33;;;3.50;99.90;;;;;;4913195;29;20047;-69
2023/12/27 07:46:31;;;;;;;6.32;3.78;;;3.50;99.90;;;;;;4914405;29;20048;-69
2023/12/27 07:49:04;;;;;;;6.63;3.80;;;3.50;99.90;;;;;;4914421;29;20054;-68
2023/12/27 07:51:31;;;;;;;6.95;3.40;;;3.50;99.90;;;;;;4913224;29;20136;-69
2023/12/27 07:54:02;;;;;;;6.10;3.08;;;3.60;99.90;;;;;;4911871;29;20052;-68
2023/12/27 07:56:29;;;;;;;6.22;3.17;;;3.60;99.90;;;;;;4914255;29;20040;-69
2023/12/27 07:59:03;;;;;;;5.18;3.10;;;3.60;99.90;;;;;;4911723;29;20042;-69
2023/12/27 08:01:35;;;;;;;;;;;3.60;99.90;;;;;;4911429;29;20040;-69
2023/12/27 08:04:07;;;;;;;4.75;2.80;;;3.70;99.90;;;;;;4911979;29;19927;-68
2023/12/27 08:06:34;;;;;;;4.45;3.28;;;3.70;99.90;;;;;;4913199;29;20040;-66
2023/12/27 08:09:06;;;;;;;6.55;5.63;;;3.70;99.90;;;;;;4913150;29;20775;-67
2023/12/27 08:11:38;;;;;;;6.75;4.00;;;3.70;99.90;;;;;;4906692;29;20048;-67
2023/12/27 08:14:10;;;;;;;6.40;4.00;;;3.70;99.90;;;;;;4923972;29;20072;-67
2023/12/27 08:16:42;;;;;;;8.15;4.97;;;3.70;99.90;;;;;;4914107;29;20074;-67
2023/12/27 08:19:10;;;;;;;8.90;6.53;;;3.80;99.90;;;;;;4914243;29;20082;-67
2023/12/27 08:21:41;;;;;;;11.90;6.20;;;3.80;99.90;;;;;;4903026;29;20053;-67
2023/12/27 08:24:13;;;;;;;13.95;7.32;;;3.90;99.90;;;;;;4910210;29;20808;-67
2023/12/27 08:26:40;;;;;;;13.95;8.73;;;3.90;99.90;;;;;;4907064;29;20581;-67
2023/12/27 08:29:12;;;;;;;16.95;10.80;;;3.90;99.90;;;;;;4908175;29;20051;-67
2023/12/27 08:31:39;;;;;;;20.45;13.10;;;3.90;99.90;;;;;;4907845;29;20041;-67
2023/12/27 08:34:11;;;;;;;19.55;12.07;;;3.90;99.90;;;;;;4921868;29;20059;-67
2023/12/27 08:36:45;;;;;;;18.67;12.05;;;4.00;99.90;;;;;;4908560;29;20131;-67
2023/12/27 08:39:17;;;;;;;20.85;9.82;;;4.00;99.90;;;;;;4898359;29;20059;-68
2023/12/27 08:41:50;;;;;;;9.68;6.53;;;4.10;99.90;;;;;;4901693;29;20050;-67
2023/12/27 08:44:17;;;;;;;11.52;5.35;;;4.10;99.90;;;;;;4906691;29;20051;-68
2023/12/27 08:46:49;;;;;;;9.50;4.97;;;4.20;99.90;;;;;;4913662;29;20465;-67
2023/12/27 08:49:21;;;;;;;11.27;6.05;;;4.20;99.90;;;;;;4906527;29;20128;-67
2023/12/27 08:51:48;;;;;;;12.98;7.05;;;4.20;99.90;;;;;;4910757;29;20041;-68
2023/12/27 08:54:20;;;;;;;8.40;5.75;;;4.20;99.90;;;;;;4913631;29;20062;-67
2023/12/27 08:56:52;;;;;;;11.73;6.85;;;4.20;99.90;;;;;;4912611;29;20529;-67
2023/12/27 08:59:24;;;;;;;13.85;7.65;;;4.20;99.90;;;;;;4913755;29;20051;-67
2023/12/27 09:01:56;;;;;;;10.90;7.73;;;4.20;99.90;;;;;;4911975;29;20059;-67
2023/12/27 09:04:23;;;;;;;32.80;8.00;;;4.40;99.90;;;;;;4931393;29;20300;-67
2023/12/27 09:06:55;;;;;;;27.58;12.32;;;4.50;99.90;;;;;;4915223;29;20044;-67
2023/12/27 09:09:22;;;;;;;37.33;15.52;;;4.50;99.90;;;;;;4914389;29;20042;-68
2023/12/27 09:11:54;;;;;;;28.70;11.90;;;4.50;99.90;;;;;;4912267;29;20067;-67
2023/12/27 09:14:26;;;;;;;13.27;8.07;;;4.50;99.90;;;;;;4916875;29;20579;-67
2023/12/27 09:16:58;;;;;;;17.10;9.07;;;4.50;99.90;;;;;;4916449;29;20149;-67
2023/12/27 09:19:26;;;;;;;12.45;7.32;;;4.50;99.90;;;;;;4915532;29;20044;-68
2023/12/27 09:21:57;;;;;;;12.43;7.03;;;4.60;99.90;;;;;;4922880;29;20059;-68
2023/12/27 09:24:30;;;;;;;13.77;7.32;;;4.60;99.90;;;;;;4895667;29;20050;-68
2023/12/27 09:26:58;;;;;;;15.57;8.25;;;4.70;99.90;;;;;;4916236;29;20575;-67
2023/12/27 09:29:30;;;;;;;15.52;7.57;;;4.70;99.90;;;;;;4902819;29;20049;-67
2023/12/27 09:32:02;;;;;;;16.02;6.95;;;4.80;99.90;;;;;;4915020;29;20047;-67
2023/12/27 09:34:34;;;;;;;13.05;5.93;;;4.90;99.90;;;;;;4914193;29;20048;-68
2023/12/27 09:37:07;;;;;;;9.48;5.97;;;4.90;99.90;;;;;;4916362;29;20051;-68
2023/12/27 09:39:39;;;;;;;12.60;5.03;;;5.00;99.90;;;;;;4915338;29;20048;-68
2023/12/27 09:42:12;;;;;;;8.10;5.80;;;5.00;99.90;;;;;;4914069;29;20044;-67
2023/12/27 09:44:46;;;;;;;7.35;4.82;;;5.00;99.90;;;;;;4915627;29;20035;-68
2023/12/27 09:47:20;;;;;;;8.60;5.88;;;5.00;99.90;;;;;;4915119;29;20521;-67
2023/12/27 09:49:55;;;;;;;194.55;68.10;;;5.20;99.90;;;;;;4916291;29;20048;-68
2023/12/27 09:52:29;;;;;;;30.95;14.25;;;5.20;99.90;;;;;;4916109;29;20509;-68
2023/12/27 09:55:01;;;;;;;;;;;5.30;99.90;;;;;;4915569;29;20063;-67
2023/12/27 09:57:34;;;;;;;41.97;17.33;;;5.40;99.90;;;;;;4915941;29;19958;-67
2023/12/27 10:00:05;;;;;;;12.90;8.40;;;5.50;99.90;;;;;;4916117;29;20054;-68
2023/12/27 10:02:41;;;;;;;11.55;5.95;;;5.60;99.90;;;;;;4914787;29;20052;-67
2023/12/27 10:05:30;;;;;;;15.63;5.82;;;5.60;99.90;;;;;;4926376;29;20615;-67
2023/12/27 10:08:02;;;;;;;12.73;5.50;;;5.70;99.90;;;;;;4901366;29;20048;-67
2023/12/27 10:10:35;;;;;;;10.95;6.93;;;5.80;99.90;;;;;;4914720;29;20055;-67
2023/12/27 10:13:08;;;;;;;9.30;6.50;;;5.90;99.90;;;;;;4915754;29;20048;-67
2023/12/27 10:15:40;;;;;;;16.35;8.52;;;5.90;99.90;;;;;;4905489;29;20041;-67
2023/12/27 10:18:07;;;;;;;7.43;5.70;;;6.00;99.90;;;;;;4915754;29;20489;-67
2023/12/27 10:20:43;;;;;;;10.35;5.95;;;6.00;99.90;;;;;;4926603;29;20048;-67
2023/12/27 10:23:15;;;;;;;8.93;5.70;;;6.10;99.90;;;;;;4912846;29;20052;-67
2023/12/27 10:25:47;;;;;;;7.75;5.32;;;6.10;99.90;;;;;;4913805;29;20048;-67
2023/12/27 10:28:24;;;;;;;9.35;5.93;;;6.20;99.90;;;;;;4912844;29;20048;-68
2023/12/27 10:30:57;;;;;;;6.57;4.50;;;6.30;99.90;;;;;;4911528;29;20060;-67
2023/12/27 10:33:48;;;;;;;11.48;5.30;;;6.30;99.90;;;;;;4899076;29;20420;-67
2023/12/27 10:36:20;;;;;;;9.02;5.05;;;6.40;99.90;;;;;;4913692;29;20531;-67
2023/12/27 10:38:49;;;;;;;11.88;5.85;;;6.40;99.90;;;;;;4915356;29;20556;-67
2023/12/27 10:41:23;;;;;;;13.20;5.57;;;6.50;99.90;;;;;;4923053;29;20051;-67
2023/12/27 10:43:54;;;;;;;7.75;5.18;;;6.50;99.90;;;;;;4909252;29;20075;-67
2023/12/27 10:46:26;;;;;;;9.75;5.60;;;6.60;99.90;;;;;;4915117;29;20040;-67
2023/12/27 10:49:02;;;;;;;7.57;4.85;;;6.60;99.90;;;;;;4922888;29;20055;-68
2023/12/27 10:51:38;;;;;;;7.88;5.13;;;6.60;99.90;;;;;;4926098;29;20044;-67
2023/12/27 10:54:12;;;;;;;8.35;5.35;;;6.60;99.90;;;;;;4914016;29;20059;-67
2023/12/27 10:56:46;;;;;;;10.80;5.80;;;6.70;99.90;;;;;;4913907;29;20505;-68
2023/12/27 10:59:18;;;;;;;7.57;4.68;;;6.80;99.90;;;;;;4903347;29;20052;-67
2023/12/27 11:01:50;;;;;;;7.57;5.18;;;7.00;99.90;;;;;;4915004;29;20428;-68
2023/12/27 11:04:23;;;;;;;6.03;4.20;;;7.10;99.90;;;;;;4914987;29;20051;-67
2023/12/27 11:06:56;;;;;;;10.77;5.72;;;7.10;99.90;;;;;;4914748;29;20040;-67
2023/12/27 11:09:28;;;;;;;10.60;4.80;;;7.20;99.90;;;;;;4914984;29;20489;-67
2023/12/27 11:12:01;;;;;;;7.13;3.97;;;7.20;99.90;;;;;;4913652;29;20421;-67
2023/12/27 11:14:37;;;;;;;7.65;3.60;;;7.40;99.90;;;;;;4914777;29;20103;-67
2023/12/27 11:17:12;;;;;;;8.50;4.13;;;7.60;99.90;;;;;;4914496;29;20048;-67
2023/12/27 11:19:46;;;;;;;4.72;3.38;;;7.60;99.90;;;;;;4915059;29;20058;-67
2023/12/27 11:22:14;;;;;;;4.80;3.20;;;7.70;99.90;;;;;;4914820;29;20058;-68
2023/12/27 11:24:46;;;;;;;6.00;3.83;;;7.70;99.90;;;;;;4912565;29;20052;-67
2023/12/27 11:27:19;;;;;;;6.97;3.20;;;7.80;99.90;;;;;;4903605;29;20044;-67
2023/12/27 11:29:52;;;;;;;6.13;3.38;;;7.90;99.90;;;;;;4914778;29;20509;-67
2023/12/27 11:32:27;;;;;;;9.73;4.93;;;8.00;99.90;;;;;;4913588;29;20449;-67
2023/12/27 11:35:00;;;;;;;7.30;4.30;;;8.20;99.90;;;;;;4922600;29;20052;-67
2023/12/27 11:37:33;;;;;;;7.53;3.33;;;8.20;99.90;;;;;;4898211;29;20063;-67
2023/12/27 11:40:06;;;;;;;4.90;3.42;;;8.20;99.90;;;;;;4910406;29;20512;-67
2023/12/27 11:42:38;;;;;;;49.60;25.70;;;8.30;99.90;;;;;;4914447;29;20056;-67
2023/12/27 11:45:10;;;;;;;10.38;6.10;;;8.30;99.90;;;;;;4913417;29;20046;-67
2023/12/27 11:47:42;;;;;;;5.45;3.65;;;8.40;99.90;;;;;;4914376;29;20045;-67
2023/12/27 11:50:14;;;;;;;6.88;4.00;;;8.40;99.90;;;;;;4913364;29;20059;-67
2023/12/27 11:52:42;;;;;;;4.57;3.10;;;8.40;99.90;;;;;;4908765;29;20577;-67
2023/12/27 11:55:16;;;;;;;5.80;3.45;;;8.40;99.90;;;;;;4913633;29;20055;-67
2023/12/27 11:57:57;;;;;;;;;;;8.50;99.90;;;;;;4914666;29;20044;-66
2023/12/27 12:00:29;;;;;;;6.45;3.40;;;8.50;99.90;;;;;;4928387;29;19923;-70
2023/12/27 12:03:08;;;;;;;6.03;3.80;;;8.60;99.90;;;;;;4912601;29;20505;-68
2023/12/27 12:06:01;;;;;;;5.82;3.10;;;8.60;99.90;;;;;;4906147;29;20040;-67
2023/12/27 12:08:45;;;;;;;6.37;4.27;;;8.70;99.90;;;;;;4902876;29;20044;-67
2023/12/27 12:11:15;;;;;;;6.30;3.38;;;8.80;99.90;;;;;;4909861;29;20048;-67
2023/12/27 12:13:48;;;;;;;5.90;3.92;;;8.90;99.90;;;;;;4911010;29;20044;-67
2023/12/27 12:16:20;;;;;;;10.32;5.60;;;9.00;99.90;;;;;;4886697;29;20049;-67
2023/12/27 12:18:53;;;;;;;9.18;6.18;;;9.00;99.90;;;;;;4929012;29;20062;-67
2023/12/27 12:21:27;;;;;;;11.60;7.18;;;9.00;99.90;;;;;;4904171;29;20131;-67
2023/12/27 12:24:06;;;;;;;7.90;4.47;;;9.10;99.90;;;;;;4914743;29;20059;-66
2023/12/27 12:26:38;;;;;;;8.93;4.60;;;9.20;99.90;;;;;;4905379;29;20047;-67
2023/12/27 12:29:10;;;;;;;7.53;4.85;;;9.30;99.90;;;;;;4897886;29;20047;-67
2023/12/27 12:31:37;;;;;;;7.53;4.10;;;9.40;99.90;;;;;;4913137;29;20052;-67
2023/12/27 12:34:09;;;;;;;10.45;4.45;;;9.50;99.90;;;;;;4904534;29;20095;-68
2023/12/27 12:36:41;;;;;;;4.90;3.22;;;9.50;99.90;;;;;;4912938;29;20040;-67
2023/12/27 12:39:15;;;;;;;6.57;3.30;;;9.60;99.90;;;;;;4906807;29;20072;-67
2023/12/27 12:41:48;;;;;;;6.53;3.72;;;9.70;99.90;;;;;;4909871;29;20298;-67
2023/12/27 12:44:20;;;;;;;4.68;2.88;;;9.80;99.90;;;;;;4914969;29;20519;-68
2023/12/27 12:46:52;;;;;;;4.57;3.13;;;9.90;99.90;;;;;;4906398;29;20033;-67
2023/12/27 12:49:25;;;;;;;5.22;2.88;;;10.00;99.90;;;;;;4910099;29;20127;-67
2023/12/27 12:52:04;;;;;;;6.15;2.80;;;10.00;99.90;;;;;;4910210;29;20409;-67
2023/12/27 12:54:35;;;;;;;4.07;3.00;;;10.10;99.90;;;;;;4912685;29;20044;-67
2023/12/27 12:57:07;;;;;;;4.47;2.90;;;10.10;99.90;;;;;;4916841;29;20040;-67
2023/12/27 12:59:41;;;;;;;3.88;2.65;;;10.10;99.90;;;;;;4909991;29;20040;-67
2023/12/27 13:02:12;;;;;;;;;;;10.00;99.90;;;;;;4917730;29;20517;-68
2023/12/27 13:04:50;;;;;;;6.28;3.20;;;10.00;99.90;;;;;;4902553;29;19935;-67
2023/12/27 13:07:26;;;;;;;9.52;6.25;;;9.90;99.90;;;;;;4907391;29;20072;-68
2023/12/27 13:10:00;;;;;;;14.77;9.10;;;9.80;99.90;;;;;;4907277;29;20063;-67
2023/12/27 13:12:33;;;;;;;5.20;3.90;;;9.70;99.90;;;;;;4911399;29;20032;-67
2023/12/27 13:15:05;;;;;;;5.75;3.22;;;9.70;99.90;;;;;;4905160;29;20037;-67
2023/12/27 13:17:37;;;;;;;4.32;3.45;;;9.60;99.90;;;;;;4908709;29;20139;-67
2023/12/27 13:20:05;;;;;;;7.82;3.72;;;9.50;99.90;;;;;;4912939;29;20128;-67